createdAt,value
2019-03-23T00:00:22.163Z,60.46
2019-03-23T00:02:51.692Z,59.24
2019-03-23T00:05:21.382Z,60.12
2019-03-23T00:07:51.004Z,58.17
2019-03-23T00:10:20.634Z,58.54
2019-03-23T00:12:50.235Z,58.52
2019-03-23T00:15:19.845Z,58.26
2019-03-23T00:17:49.415Z,58.87
2019-03-23T00:20:19.293Z,58.37
2019-03-23T00:22:48.778Z,57.31
2019-03-23T00:25:20.390Z,58.38
2019-03-23T00:27:49.917Z,58.73
2019-03-23T00:30:19.487Z,58.02
2019-03-23T00:32:48.882Z,58.12
2019-03-23T00:35:18.454Z,57.70
2019-03-23T00:37:47.936Z,57.51
2019-03-23T00:40:17.412Z,58.13
2019-03-23T00:42:46.930Z,57.70
2019-03-23T00:45:16.466Z,57.40
2019-03-23T00:47:46.023Z,58.10
2019-03-23T00:50:15.547Z,57.57
2019-03-23T00:52:45.088Z,57.31
2019-03-23T00:55:14.610Z,57.14
2019-03-23T00:57:44.201Z,55.99
2019-03-23T01:00:13.908Z,56.06
2019-03-23T01:02:43.573Z,57.89
2019-03-23T01:05:13.067Z,56.67
2019-03-23T01:07:42.552Z,56.81
2019-03-23T01:10:13.143Z,56.83
2019-03-23T01:12:42.022Z,56.66
2019-03-23T01:15:12.752Z,56.88
2019-03-23T01:17:42.136Z,56.21
2019-03-23T01:20:12.423Z,57.21
2019-03-23T01:22:41.854Z,56.01
2019-03-23T01:25:11.328Z,56.94
2019-03-23T01:27:40.894Z,56.83
2019-03-23T01:30:12.766Z,56.70
2019-03-23T01:32:42.363Z,57.02
2019-03-23T01:35:12.133Z,55.46
2019-03-23T01:37:41.490Z,55.83
2019-03-23T01:40:11.109Z,55.21
2019-03-23T01:42:40.533Z,56.00
2019-03-23T01:45:11.511Z,56.29
2019-03-23T01:47:42.160Z,56.07
2019-03-23T01:50:12.154Z,55.53
2019-03-23T01:52:41.621Z,55.80
2019-03-23T01:55:11.182Z,56.89
2019-03-23T01:57:40.666Z,56.39
2019-03-23T02:00:11.789Z,56.82
2019-03-23T02:02:41.351Z,56.12
2019-03-23T02:05:10.832Z,57.06
2019-03-23T02:07:40.501Z,56.65
2019-03-23T02:10:11.068Z,57.00
2019-03-23T02:12:41.443Z,57.45
2019-03-23T02:15:11.783Z,57.49
2019-03-23T02:17:41.196Z,57.21
2019-03-23T02:20:12.078Z,56.95
2019-03-23T02:22:41.485Z,56.30
2019-03-23T02:25:11.129Z,57.14
2019-03-23T02:27:40.666Z,56.65
2019-03-23T02:30:11.220Z,57.01
2019-03-23T02:32:40.834Z,56.98
2019-03-23T02:35:10.232Z,57.14
2019-03-23T02:37:39.852Z,56.72
2019-03-23T02:40:10.266Z,57.67
2019-03-23T02:42:39.337Z,58.07
2019-03-23T02:45:11.164Z,57.96
2019-03-23T02:47:40.874Z,57.38
2019-03-23T02:50:11.416Z,58.06
2019-03-23T02:52:41.000Z,57.50
2019-03-23T02:55:10.812Z,57.77
2019-03-23T02:57:40.259Z,57.75
2019-03-23T03:00:12.463Z,57.73
2019-03-23T03:02:41.930Z,58.02
2019-03-23T03:05:11.541Z,57.46
2019-03-23T03:07:43.246Z,58.66
2019-03-23T03:10:14.513Z,59.44
2019-03-23T03:12:44.077Z,58.71
2019-03-23T03:15:14.039Z,58.68
2019-03-23T03:17:43.489Z,59.67
2019-03-23T03:20:13.596Z,59.68
2019-03-23T03:22:43.152Z,59.52
2019-03-23T03:25:12.682Z,58.10
2019-03-23T03:27:42.233Z,58.49
2019-03-23T03:30:12.032Z,58.18
2019-03-23T03:32:41.890Z,58.05
2019-03-23T03:35:11.604Z,59.13
2019-03-23T03:37:55.377Z,58.25
2019-03-23T03:40:12.379Z,59.80
2019-03-23T03:42:43.600Z,58.52
2019-03-23T03:45:24.588Z,58.58
2019-03-23T03:47:54.162Z,58.59
2019-03-23T03:50:23.778Z,59.06
2019-03-23T03:52:53.360Z,58.56
2019-03-23T03:55:22.977Z,58.58
2019-03-23T03:57:52.687Z,59.17
2019-03-23T04:00:22.386Z,58.83
2019-03-23T04:02:51.915Z,59.16
2019-03-23T04:05:21.619Z,59.54
2019-03-23T04:07:51.343Z,59.56
2019-03-23T04:10:20.960Z,59.79
2019-03-23T04:12:57.280Z,59.80
2019-03-23T04:15:29.397Z,60.15
2019-03-23T04:18:03.604Z,59.72
2019-03-23T04:20:33.156Z,59.85
2019-03-23T04:23:02.704Z,60.41
2019-03-23T04:25:32.389Z,60.41
2019-03-23T04:28:01.926Z,59.94
2019-03-23T04:30:33.198Z,60.08
2019-03-23T04:33:02.834Z,59.29
2019-03-23T04:35:33.097Z,59.74
2019-03-23T04:38:02.628Z,59.72
2019-03-23T04:40:32.194Z,59.72
2019-03-23T04:43:03.498Z,59.48
2019-03-23T04:45:36.212Z,58.78
2019-03-23T04:48:05.999Z,59.29
2019-03-23T04:50:35.639Z,59.77
2019-03-23T04:53:05.553Z,59.37
2019-03-23T04:55:37.493Z,59.48
2019-03-23T04:58:06.999Z,58.95
2019-03-23T05:00:36.622Z,58.91
2019-03-23T05:03:11.425Z,58.68
2019-03-23T05:05:41.090Z,58.03
2019-03-23T05:08:10.697Z,57.56
2019-03-23T05:10:41.243Z,57.60
2019-03-23T05:13:10.853Z,57.08
2019-03-23T05:15:40.452Z,57.06
2019-03-23T05:18:10.058Z,56.67
2019-03-23T05:20:39.731Z,56.94
2019-03-23T05:23:09.368Z,57.29
2019-03-23T05:25:39.017Z,56.62
2019-03-23T05:28:08.523Z,55.78
2019-03-23T05:30:39.885Z,55.73
2019-03-23T05:33:09.419Z,55.83
2019-03-23T05:35:38.958Z,54.66
2019-03-23T05:38:08.479Z,54.42
2019-03-23T05:40:38.214Z,54.85
2019-03-23T05:43:07.854Z,54.83
2019-03-23T05:45:37.356Z,55.00
2019-03-23T05:48:06.989Z,53.61
2019-03-23T05:50:36.546Z,54.90
2019-03-23T05:53:06.051Z,54.51
2019-03-23T05:55:35.766Z,53.92
2019-03-23T05:58:05.300Z,55.35
2019-03-23T06:00:34.858Z,55.82
2019-03-23T06:03:04.487Z,55.34
2019-03-23T06:05:34.025Z,53.96
2019-03-23T06:08:03.678Z,54.04
2019-03-23T06:10:33.229Z,53.60
2019-03-23T06:13:04.244Z,47.78
2019-03-23T06:15:33.795Z,46.77
2019-03-23T06:18:03.415Z,50.33
2019-03-23T06:20:32.889Z,50.91
2019-03-23T06:23:02.285Z,51.41
2019-03-23T06:25:33.095Z,53.15
2019-03-23T06:28:04.185Z,53.78
2019-03-23T06:30:35.415Z,54.07
2019-03-23T06:33:04.967Z,52.85
2019-03-23T06:35:34.579Z,46.91
2019-03-23T06:38:04.283Z,43.73
2019-03-23T06:40:36.100Z,36.34
2019-03-23T06:43:05.754Z,29.68
2019-03-23T06:45:35.368Z,28.51
2019-03-23T06:48:06.529Z,30.39
2019-03-23T06:50:36.010Z,34.73
2019-03-23T06:53:05.618Z,37.29
2019-03-23T06:55:35.237Z,43.05
2019-03-23T06:58:04.724Z,42.71
2019-03-23T07:00:34.332Z,38.48
2019-03-23T07:03:03.884Z,38.72
2019-03-23T07:05:33.553Z,35.42
2019-03-23T07:08:03.015Z,34.79
2019-03-23T07:10:32.707Z,34.42
2019-03-23T07:13:02.180Z,34.57
2019-03-23T07:15:31.893Z,32.92
2019-03-23T07:18:01.578Z,30.78
2019-03-23T07:20:30.969Z,30.96
2019-03-23T07:23:00.588Z,33.36
2019-03-23T07:25:30.170Z,37.08
2019-03-23T07:27:59.722Z,37.73
2019-03-23T07:30:29.395Z,36.89
2019-03-23T07:32:59.117Z,36.67
2019-03-23T07:35:28.602Z,39.48
2019-03-23T07:37:58.176Z,37.95
2019-03-23T07:40:27.837Z,36.86
2019-03-23T07:42:57.658Z,38.12
2019-03-23T07:45:28.324Z,39.82
2019-03-23T07:47:57.871Z,41.85
2019-03-23T07:50:27.422Z,40.26
2019-03-23T07:52:57.022Z,38.63
2019-03-23T07:55:26.639Z,38.73
2019-03-23T07:57:56.226Z,39.82
2019-03-23T08:00:55.430Z,40.37
2019-03-23T08:03:27.035Z,40.01
2019-03-23T08:05:56.608Z,41.18
2019-03-23T08:08:26.204Z,43.38
2019-03-23T08:10:55.872Z,44.81
2019-03-23T08:13:25.545Z,45.87
2019-03-23T08:15:55.221Z,47.11
2019-03-23T08:18:24.763Z,45.86
2019-03-23T08:20:54.517Z,48.79
2019-03-23T08:23:24.140Z,50.26
2019-03-23T08:25:53.715Z,51.89
2019-03-23T08:28:23.317Z,50.41
2019-03-23T08:30:52.861Z,47.76
2019-03-23T08:33:22.462Z,44.71
2019-03-23T08:35:52.051Z,42.86
2019-03-23T08:38:21.520Z,42.62
2019-03-23T08:40:51.090Z,45.12
2019-03-23T08:43:22.247Z,49.59
2019-03-23T08:45:54.805Z,51.80
2019-03-23T08:48:27.314Z,53.08
2019-03-23T08:50:56.957Z,51.78
2019-03-23T08:53:26.787Z,53.33
2019-03-23T08:55:56.582Z,52.13
2019-03-23T08:58:29.114Z,53.54
2019-03-23T09:00:59.241Z,56.76
2019-03-23T09:03:28.854Z,58.78
2019-03-23T09:05:58.405Z,59.18
2019-03-23T09:08:27.999Z,61.43
2019-03-23T09:10:57.628Z,59.41
2019-03-23T09:13:27.529Z,55.08
2019-03-23T09:16:00.099Z,47.80
2019-03-23T09:18:29.679Z,41.99
2019-03-23T09:20:59.293Z,38.01
2019-03-23T09:23:31.819Z,39.79
2019-03-23T09:26:02.211Z,41.97
2019-03-23T09:28:32.788Z,47.37
2019-03-23T09:31:06.869Z,52.80
2019-03-23T09:33:36.350Z,56.37
2019-03-23T09:36:09.118Z,54.87
2019-03-23T09:38:38.638Z,45.79
2019-03-23T09:41:08.249Z,37.71
2019-03-23T09:43:37.810Z,34.60
2019-03-23T09:46:07.346Z,39.23
2019-03-23T09:48:45.959Z,38.51
2019-03-23T09:51:16.188Z,42.20
2019-03-23T09:53:45.812Z,44.47
2019-03-23T09:56:15.313Z,47.27
2019-03-23T09:58:46.543Z,47.81
2019-03-23T10:01:17.726Z,49.53
2019-03-23T10:03:47.329Z,49.57
2019-03-23T10:06:18.680Z,49.05
2019-03-23T10:08:49.789Z,51.01
2019-03-23T10:11:21.137Z,54.68
2019-03-23T10:13:50.807Z,54.78
2019-03-23T10:19:12.218Z,50.58
2019-03-23T10:21:41.780Z,48.76
2019-03-23T10:24:16.725Z,46.75
2019-03-23T10:26:46.423Z,49.57
2019-03-23T10:29:16.138Z,51.53
2019-03-23T10:31:45.779Z,51.96
2019-03-23T10:34:19.914Z,53.02
2019-03-23T10:36:49.561Z,52.86
2019-03-23T10:39:19.085Z,52.95
2019-03-23T10:41:48.859Z,52.40
2019-03-23T10:44:18.404Z,51.10
2019-03-23T10:46:49.832Z,50.85
2019-03-23T10:49:19.700Z,51.82
2019-03-23T10:51:49.323Z,53.49
2019-03-23T10:54:18.977Z,54.16
2019-03-23T10:56:48.692Z,52.81
2019-03-23T10:59:18.605Z,54.22
2019-03-23T11:01:48.100Z,53.56
2019-03-23T11:04:17.737Z,54.58
2019-03-23T11:06:47.221Z,56.96
2019-03-23T11:09:16.902Z,56.96
2019-03-23T11:11:48.280Z,57.17
2019-03-23T11:14:18.017Z,58.02
2019-03-23T11:16:47.487Z,57.80
2019-03-23T11:19:17.118Z,58.45
2019-03-23T11:21:46.817Z,58.51
2019-03-23T11:24:16.483Z,56.01
2019-03-23T11:26:48.917Z,54.79
2019-03-23T11:29:20.441Z,53.88
2019-03-23T11:31:52.786Z,53.18
2019-03-23T11:34:23.946Z,52.96
2019-03-23T11:36:53.640Z,51.90
2019-03-23T11:39:23.155Z,49.62
2019-03-23T11:41:52.684Z,48.59
2019-03-23T11:44:22.316Z,48.51
2019-03-23T11:46:51.926Z,46.02
2019-03-23T11:49:21.617Z,45.93
2019-03-23T11:51:51.203Z,46.23
2019-03-23T11:54:20.691Z,45.75
2019-03-23T11:56:50.397Z,44.28
2019-03-23T11:59:20.069Z,40.31
2019-03-23T12:01:52.019Z,40.56
2019-03-23T12:04:21.228Z,39.04
2019-03-23T12:06:52.376Z,41.93
2019-03-23T12:09:22.041Z,47.06
2019-03-23T12:11:51.609Z,48.16
2019-03-23T12:14:21.077Z,50.42
2019-03-23T12:16:50.682Z,51.46
2019-03-23T12:19:20.203Z,52.92
2019-03-23T12:21:50.926Z,53.02
2019-03-23T12:24:20.564Z,53.14
2019-03-23T12:26:50.201Z,52.55
2019-03-23T12:29:19.680Z,52.13
2019-03-23T12:31:49.214Z,50.57
2019-03-23T12:34:18.688Z,50.15
2019-03-23T12:36:48.362Z,50.00
2019-03-23T12:39:18.006Z,51.18
2019-03-23T12:41:47.573Z,53.07
2019-03-23T12:44:17.345Z,53.46
2019-03-23T12:46:48.436Z,52.88
2019-03-23T12:49:18.348Z,52.73
2019-03-23T12:51:47.959Z,52.58
2019-03-23T12:54:17.698Z,52.40
2019-03-23T12:56:47.253Z,52.52
2019-03-23T12:59:17.020Z,52.74
2019-03-23T13:01:46.570Z,53.46
2019-03-23T13:04:16.175Z,53.53
2019-03-23T13:06:49.835Z,52.53
2019-03-23T13:09:19.269Z,51.57
2019-03-23T13:11:48.795Z,51.20
2019-03-23T13:14:18.492Z,51.67
2019-03-23T13:16:48.093Z,50.53
2019-03-23T13:19:17.659Z,51.22
2019-03-23T13:21:47.649Z,51.67
2019-03-23T13:24:17.139Z,51.81
2019-03-23T13:26:48.397Z,51.38
2019-03-23T13:29:18.935Z,52.87
2019-03-23T13:31:47.802Z,53.60
2019-03-23T13:34:17.320Z,53.76
2019-03-23T13:36:46.851Z,53.25
2019-03-23T13:39:16.345Z,53.84
2019-03-23T13:41:49.163Z,54.43
2019-03-23T13:44:18.982Z,53.94
2019-03-23T13:46:48.474Z,54.15
2019-03-23T13:49:18.255Z,54.42
2019-03-23T13:51:47.811Z,54.49
2019-03-23T13:54:17.510Z,54.86
2019-03-23T13:56:47.010Z,55.18
2019-03-23T13:59:16.634Z,55.07
2019-03-23T14:01:46.249Z,55.58
2019-03-23T14:04:15.783Z,55.56
2019-03-23T14:06:45.389Z,56.51
2019-03-23T14:09:14.942Z,56.81
2019-03-23T14:11:44.506Z,57.35
2019-03-23T14:14:14.624Z,57.42
2019-03-23T14:16:47.445Z,57.75
2019-03-23T14:19:18.073Z,57.92
2019-03-23T14:21:47.697Z,58.28
2019-03-23T14:24:17.455Z,58.03
2019-03-23T14:26:47.021Z,58.69
2019-03-23T14:29:16.598Z,58.10
2019-03-23T14:31:47.671Z,57.28
2019-03-23T14:34:20.421Z,57.81
2019-03-23T14:36:50.650Z,58.26
2019-03-23T14:39:20.186Z,57.94
2019-03-23T14:41:50.929Z,57.79
2019-03-23T14:44:20.566Z,58.05
2019-03-23T14:46:50.236Z,58.70
2019-03-23T14:49:19.896Z,58.86
2019-03-23T14:51:49.533Z,59.17
2019-03-23T14:54:19.250Z,59.59
2019-03-23T14:56:48.918Z,59.77
2019-03-23T14:59:18.491Z,59.91
2019-03-23T15:01:48.148Z,59.86
2019-03-23T15:04:17.800Z,59.59
2019-03-23T15:06:47.850Z,59.44
2019-03-23T15:09:18.654Z,59.56
2019-03-23T15:11:49.957Z,59.93
2019-03-23T15:14:22.435Z,60.34
2019-03-23T15:16:52.316Z,60.67
2019-03-23T15:19:21.787Z,60.97
2019-03-23T15:21:51.394Z,61.08
2019-03-23T15:24:21.064Z,61.44
2019-03-23T15:26:50.537Z,61.14
2019-03-23T15:29:21.728Z,61.14
2019-03-23T15:31:52.846Z,61.96
2019-03-23T15:34:22.534Z,61.60
2019-03-23T15:36:52.172Z,61.59
2019-03-23T15:39:24.497Z,61.99
2019-03-23T15:41:53.967Z,62.13
2019-03-23T15:44:23.586Z,62.31
2019-03-23T15:46:53.428Z,62.62
2019-03-23T15:49:23.139Z,62.76
2019-03-23T15:51:52.728Z,62.95
2019-03-23T15:54:22.437Z,63.08
2019-03-23T15:56:52.053Z,63.64
2019-03-23T15:59:21.757Z,63.74
2019-03-23T16:01:51.367Z,63.84
2019-03-23T16:04:23.228Z,63.66
2019-03-23T16:06:52.808Z,63.89
2019-03-23T16:09:22.501Z,63.81
2019-03-23T16:11:52.156Z,63.88
2019-03-23T16:14:21.639Z,63.33
2019-03-23T16:16:51.396Z,63.28
2019-03-23T16:19:21.156Z,63.42
2019-03-23T16:21:50.789Z,63.39
2019-03-23T16:24:20.317Z,63.76
2019-03-23T16:26:49.997Z,63.97
2019-03-23T16:29:19.763Z,64.51
2019-03-23T16:31:49.326Z,65.24
2019-03-23T16:34:18.981Z,65.71
2019-03-23T16:36:48.717Z,66.13
2019-03-23T16:39:18.465Z,66.34
2019-03-23T16:41:48.165Z,66.74
2019-03-23T16:44:22.262Z,66.65
2019-03-23T16:46:51.709Z,66.66
2019-03-23T16:49:21.523Z,67.20
2019-03-23T16:51:51.123Z,67.52
2019-03-23T16:54:20.951Z,67.28
2019-03-23T16:56:57.631Z,67.46
2019-03-23T16:59:27.575Z,67.39
2019-03-23T17:01:59.556Z,67.02
2019-03-23T17:04:29.254Z,66.90
2019-03-23T17:06:58.886Z,67.14
2019-03-23T17:09:28.607Z,67.10
2019-03-23T17:11:58.194Z,66.60
2019-03-23T17:14:27.799Z,66.38
2019-03-23T17:16:57.845Z,66.35
2019-03-23T17:19:28.984Z,66.11
2019-03-23T17:21:58.473Z,66.02
2019-03-23T17:24:28.295Z,65.89
2019-03-23T17:26:57.968Z,65.38
2019-03-23T17:29:27.596Z,65.40
2019-03-23T17:31:57.197Z,65.08
2019-03-23T17:34:26.728Z,65.13
2019-03-23T17:36:59.583Z,65.02
2019-03-23T17:39:29.746Z,65.19
2019-03-23T17:42:01.007Z,65.67
2019-03-23T17:44:33.849Z,65.63
2019-03-23T17:47:03.422Z,65.92
2019-03-23T17:49:33.270Z,65.59
2019-03-23T17:52:02.769Z,65.55
2019-03-23T17:54:32.336Z,65.41
2019-03-23T17:57:01.879Z,65.69
2019-03-23T17:59:31.553Z,65.73
2019-03-23T18:02:01.270Z,65.86
2019-03-23T18:04:30.877Z,65.35
2019-03-23T18:07:00.855Z,65.30
2019-03-23T18:09:30.287Z,65.00
2019-03-23T18:11:59.833Z,65.19
2019-03-23T18:14:29.538Z,64.93
2019-03-23T18:16:59.178Z,64.87
2019-03-23T18:19:28.789Z,64.84
2019-03-23T18:21:58.358Z,64.98
2019-03-23T18:24:29.546Z,65.15
2019-03-23T18:26:59.282Z,65.15
2019-03-23T18:29:28.828Z,65.11
2019-03-23T18:31:58.724Z,64.81
2019-03-23T18:34:29.882Z,65.01
2019-03-23T18:37:00.458Z,64.95
2019-03-23T18:39:29.967Z,64.81
2019-03-23T18:41:59.455Z,64.88
2019-03-23T18:44:29.955Z,65.00
2019-03-23T18:46:59.668Z,65.11
2019-03-23T18:49:29.223Z,64.83
2019-03-23T18:51:58.672Z,65.03
2019-03-23T18:54:28.409Z,65.26
2019-03-23T18:56:58.045Z,64.87
2019-03-23T18:59:27.680Z,64.27
2019-03-23T19:01:57.352Z,64.35
2019-03-23T19:04:27.998Z,64.73
2019-03-23T19:06:57.497Z,64.61
2019-03-23T19:09:27.095Z,65.16
2019-03-23T19:11:56.675Z,65.15
2019-03-23T19:14:26.448Z,64.80
2019-03-23T19:16:56.025Z,64.80
2019-03-23T19:19:25.503Z,65.20
2019-03-23T19:21:55.209Z,65.27
2019-03-23T19:24:24.850Z,65.13
2019-03-23T19:26:54.325Z,65.11
2019-03-23T19:29:24.083Z,65.34
2019-03-23T19:31:53.689Z,65.34
2019-03-23T19:34:23.387Z,65.51
2019-03-23T19:36:52.897Z,65.82
2019-03-23T19:39:22.594Z,66.05
2019-03-23T19:41:53.758Z,66.09
2019-03-23T19:44:23.414Z,66.35
2019-03-23T19:46:52.928Z,66.62
2019-03-23T19:49:22.643Z,66.83
2019-03-23T19:51:52.174Z,66.66
2019-03-23T19:54:21.685Z,66.54
2019-03-23T19:56:51.372Z,66.71
2019-03-23T19:59:20.928Z,66.88
2019-03-23T20:01:50.409Z,67.09
2019-03-23T20:04:19.962Z,67.06
2019-03-23T20:06:49.951Z,67.15
2019-03-23T20:09:19.389Z,66.95
2019-03-23T20:11:48.903Z,67.21
2019-03-23T20:14:19.013Z,67.26
2019-03-23T20:16:49.530Z,67.13
2019-03-23T20:19:19.105Z,67.17
2019-03-23T20:21:48.565Z,66.93
2019-03-23T20:24:18.346Z,66.91
2019-03-23T20:26:48.971Z,66.81
2019-03-23T20:29:18.609Z,66.85
2019-03-23T20:31:48.142Z,67.18
2019-03-23T20:34:17.698Z,66.94
2019-03-23T20:36:48.868Z,67.16
2019-03-23T20:39:18.481Z,67.03
2019-03-23T20:41:48.050Z,66.63
2019-03-23T20:44:17.544Z,66.30
2019-03-23T20:46:47.125Z,66.48
2019-03-23T20:49:16.664Z,66.17
2019-03-23T20:51:46.165Z,66.33
2019-03-23T20:54:15.723Z,66.30
2019-03-23T20:56:45.287Z,66.24
2019-03-23T20:59:14.831Z,66.18
2019-03-23T21:01:44.366Z,66.13
2019-03-23T21:04:13.942Z,66.91
2019-03-23T21:06:44.352Z,67.09
2019-03-23T21:09:13.927Z,66.94
2019-03-23T21:11:43.399Z,66.91
2019-03-23T21:14:20.178Z,67.00
2019-03-23T21:16:44.301Z,66.93
2019-03-23T21:19:13.840Z,67.21
2019-03-23T21:21:43.433Z,66.97
2019-03-23T21:24:12.991Z,67.13
2019-03-23T21:26:44.134Z,67.18
2019-03-23T21:29:13.693Z,67.28
2019-03-23T21:31:43.253Z,66.80
2019-03-23T21:34:12.752Z,66.79
2019-03-23T21:36:42.319Z,67.10
2019-03-23T21:39:12.006Z,67.35
2019-03-23T21:41:41.614Z,67.44
2019-03-23T21:44:11.112Z,67.20
2019-03-23T21:46:40.680Z,67.61
2019-03-23T21:49:10.437Z,68.01
2019-03-23T21:51:40.000Z,67.82
2019-03-23T21:54:09.547Z,67.68
2019-03-23T21:56:39.070Z,67.56
2019-03-23T21:59:08.516Z,66.70
2019-03-23T22:01:38.110Z,67.02
2019-03-23T22:04:07.654Z,66.58
2019-03-23T22:06:37.223Z,67.08
2019-03-23T22:09:06.790Z,66.63
2019-03-23T22:11:36.408Z,66.80
2019-03-23T22:14:05.884Z,67.38
2019-03-23T22:16:35.279Z,66.90
2019-03-23T22:19:04.845Z,67.13
2019-03-23T22:21:34.505Z,67.25
2019-03-23T22:24:04.204Z,68.02
2019-03-23T22:26:33.782Z,67.78
2019-03-23T22:29:03.166Z,67.59
2019-03-23T22:31:33.641Z,68.63
2019-03-23T22:34:03.232Z,69.10
2019-03-23T22:36:33.094Z,69.88
2019-03-23T22:39:02.508Z,70.54
2019-03-23T22:41:33.011Z,70.20
2019-03-23T22:44:02.754Z,70.53
2019-03-23T22:46:32.310Z,70.57
2019-03-23T22:49:01.819Z,70.78
2019-03-23T22:51:31.365Z,71.17
2019-03-23T22:54:01.125Z,72.00
2019-03-23T22:56:30.646Z,72.00
2019-03-23T22:59:00.135Z,72.28
2019-03-23T23:01:29.892Z,72.39
2019-03-23T23:03:59.490Z,72.46
2019-03-23T23:06:29.030Z,72.88
2019-03-23T23:08:58.525Z,73.21
2019-03-23T23:11:28.110Z,73.44
2019-03-23T23:13:57.520Z,72.36
2019-03-23T23:16:26.950Z,72.31
2019-03-23T23:18:56.693Z,73.01
2019-03-23T23:21:26.155Z,71.13
2019-03-23T23:23:55.636Z,70.55
2019-03-23T23:26:25.412Z,71.26
2019-03-23T23:28:54.962Z,72.02
2019-03-23T23:31:24.455Z,72.48
2019-03-23T23:33:54.039Z,72.13
2019-03-23T23:36:23.601Z,72.51
2019-03-23T23:38:53.115Z,73.18
2019-03-23T23:41:22.641Z,71.91
2019-03-23T23:43:52.118Z,72.35
2019-03-23T23:46:23.565Z,73.16
2019-03-23T23:48:53.013Z,73.91
2019-03-23T23:51:23.543Z,74.09
2019-03-23T23:53:53.020Z,74.04
2019-03-23T23:56:22.527Z,74.59
2019-03-23T23:58:51.993Z,74.41
